sensor_id;sensor_type;location;lat;lon;timestamp;P1;durP1;ratioP1;P2;durP2;ratioP2
18695;SDS011;22617;43.690;27.956;2022-09-09T00:01:43;3.77;;;2.30;;
18695;SDS011;22617;43.690;27.956;2022-09-09T00:07:04;5.13;;;2.23;;
18695;SDS011;22617;43.690;27.956;2022-09-09T00:12:16;3.13;;;1.90;;
18695;SDS011;22617;43.690;27.956;2022-09-09T00:17:29;5.60;;;2.07;;
18695;SDS011;22617;43.690;27.956;2022-09-09T00:22:38;3.50;;;2.20;;
18695;SDS011;22617;43.690;27.956;2022-09-09T00:27:50;2.28;;;1.70;;
18695;SDS011;22617;43.690;27.956;2022-09-09T00:32:54;5.05;;;2.20;;
18695;SDS011;22617;43.690;27.956;2022-09-09T00:38:04;2.47;;;2.10;;
18695;SDS011;22617;43.690;27.956;2022-09-09T00:43:21;6.17;;;2.00;;
18695;SDS011;22617;43.690;27.956;2022-09-09T00:48:33;5.40;;;2.23;;
18695;SDS011;22617;43.690;27.956;2022-09-09T00:53:56;2.60;;;1.90;;
18695;SDS011;22617;43.690;27.956;2022-09-09T00:59:15;8.63;;;2.10;;
18695;SDS011;22617;43.690;27.956;2022-09-09T01:04:32;2.63;;;2.13;;
18695;SDS011;22617;43.690;27.956;2022-09-09T01:09:42;2.93;;;2.00;;
18695;SDS011;22617;43.690;27.956;2022-09-09T01:15:01;3.93;;;2.20;;
18695;SDS011;22617;43.690;27.956;2022-09-09T01:20:18;3.83;;;1.73;;
18695;SDS011;22617;43.690;27.956;2022-09-09T01:25:56;2.77;;;1.70;;
18695;SDS011;22617;43.690;27.956;2022-09-09T01:31:26;3.30;;;2.00;;
18695;SDS011;22617;43.690;27.956;2022-09-09T01:36:33;3.67;;;2.00;;
18695;SDS011;22617;43.690;27.956;2022-09-09T01:41:43;3.20;;;2.07;;
18695;SDS011;22617;43.690;27.956;2022-09-09T01:46:50;3.40;;;1.90;;
18695;SDS011;22617;43.690;27.956;2022-09-09T01:51:56;2.83;;;2.00;;
18695;SDS011;22617;43.690;27.956;2022-09-09T01:57:11;2.80;;;1.67;;
18695;SDS011;22617;43.690;27.956;2022-09-09T02:02:23;2.43;;;1.70;;
18695;SDS011;22617;43.690;27.956;2022-09-09T02:07:47;2.60;;;1.77;;
18695;SDS011;22617;43.690;27.956;2022-09-09T02:13:05;3.50;;;1.70;;
18695;SDS011;22617;43.690;27.956;2022-09-09T02:18:13;4.17;;;1.93;;
18695;SDS011;22617;43.690;27.956;2022-09-09T02:23:26;3.40;;;1.60;;
18695;SDS011;22617;43.690;27.956;2022-09-09T02:28:33;3.80;;;1.80;;
18695;SDS011;22617;43.690;27.956;2022-09-09T02:33:41;3.67;;;1.70;;
18695;SDS011;22617;43.690;27.956;2022-09-09T02:38:57;7.73;;;1.90;;
18695;SDS011;22617;43.690;27.956;2022-09-09T02:44:08;2.90;;;1.70;;
18695;SDS011;22617;43.690;27.956;2022-09-09T02:49:15;2.67;;;1.70;;
18695;SDS011;22617;43.690;27.956;2022-09-09T02:54:27;5.57;;;1.60;;
18695;SDS011;22617;43.690;27.956;2022-09-09T02:59:38;2.90;;;1.60;;
18695;SDS011;22617;43.690;27.956;2022-09-09T03:04:42;2.57;;;1.63;;
18695;SDS011;22617;43.690;27.956;2022-09-09T03:09:48;3.50;;;1.70;;
18695;SDS011;22617;43.690;27.956;2022-09-09T03:14:53;2.00;;;1.47;;
18695;SDS011;22617;43.690;27.956;2022-09-09T03:19:58;3.03;;;1.50;;
18695;SDS011;22617;43.690;27.956;2022-09-09T03:25:03;4.47;;;1.88;;
18695;SDS011;22617;43.690;27.956;2022-09-09T03:30:11;2.80;;;1.63;;
18695;SDS011;22617;43.690;27.956;2022-09-09T03:35:16;1.70;;;1.50;;
18695;SDS011;22617;43.690;27.956;2022-09-09T03:40:21;2.33;;;1.50;;
18695;SDS011;22617;43.690;27.956;2022-09-09T03:45:26;4.27;;;2.07;;
18695;SDS011;22617;43.690;27.956;2022-09-09T03:50:29;3.30;;;1.70;;
18695;SDS011;22617;43.690;27.956;2022-09-09T03:55:34;3.50;;;1.63;;
18695;SDS011;22617;43.690;27.956;2022-09-09T04:00:39;2.73;;;1.73;;
18695;SDS011;22617;43.690;27.956;2022-09-09T04:05:48;9.10;;;2.33;;
18695;SDS011;22617;43.690;27.956;2022-09-09T04:10:52;5.00;;;1.70;;
18695;SDS011;22617;43.690;27.956;2022-09-09T04:16:03;3.13;;;2.00;;
18695;SDS011;22617;43.690;27.956;2022-09-09T04:21:09;4.37;;;1.87;;
18695;SDS011;22617;43.690;27.956;2022-09-09T04:26:14;5.15;;;1.80;;
18695;SDS011;22617;43.690;27.956;2022-09-09T04:31:21;2.83;;;1.60;;
18695;SDS011;22617;43.690;27.956;2022-09-09T04:36:29;3.20;;;1.70;;
18695;SDS011;22617;43.690;27.956;2022-09-09T04:41:37;4.70;;;1.83;;
18695;SDS011;22617;43.690;27.956;2022-09-09T04:46:42;4.23;;;1.60;;
18695;SDS011;22617;43.690;27.956;2022-09-09T04:51:48;3.20;;;1.70;;
18695;SDS011;22617;43.690;27.956;2022-09-09T04:56:52;3.80;;;1.60;;
18695;SDS011;22617;43.690;27.956;2022-09-09T05:01:58;4.33;;;1.60;;
18695;SDS011;22617;43.690;27.956;2022-09-09T05:07:03;3.63;;;1.50;;
18695;SDS011;22617;43.690;27.956;2022-09-09T05:12:07;3.73;;;1.50;;
18695;SDS011;22617;43.690;27.956;2022-09-09T05:17:16;4.88;;;1.98;;
18695;SDS011;22617;43.690;27.956;2022-09-09T05:22:20;3.47;;;1.70;;
18695;SDS011;22617;43.690;27.956;2022-09-09T05:27:26;1.90;;;1.70;;
18695;SDS011;22617;43.690;27.956;2022-09-09T05:32:32;3.20;;;1.57;;
18695;SDS011;22617;43.690;27.956;2022-09-09T05:37:37;8.27;;;1.77;;
18695;SDS011;22617;43.690;27.956;2022-09-09T05:42:42;4.30;;;1.50;;
18695;SDS011;22617;43.690;27.956;2022-09-09T05:47:51;3.20;;;1.40;;
18695;SDS011;22617;43.690;27.956;2022-09-09T05:52:55;5.38;;;1.65;;
18695;SDS011;22617;43.690;27.956;2022-09-09T05:57:59;3.00;;;1.50;;
18695;SDS011;22617;43.690;27.956;2022-09-09T06:03:05;2.90;;;1.50;;
18695;SDS011;22617;43.690;27.956;2022-09-09T06:08:09;3.28;;;1.45;;
18695;SDS011;22617;43.690;27.956;2022-09-09T06:13:13;4.03;;;1.73;;
18695;SDS011;22617;43.690;27.956;2022-09-09T06:18:18;1.92;;;1.40;;
18695;SDS011;22617;43.690;27.956;2022-09-09T06:23:22;4.50;;;1.23;;
18695;SDS011;22617;43.690;27.956;2022-09-09T06:28:26;2.40;;;1.40;;
18695;SDS011;22617;43.690;27.956;2022-09-09T06:33:32;3.28;;;1.65;;
18695;SDS011;22617;43.690;27.956;2022-09-09T06:38:37;2.45;;;1.60;;
18695;SDS011;22617;43.690;27.956;2022-09-09T06:43:41;1.90;;;1.25;;
18695;SDS011;22617;43.690;27.956;2022-09-09T06:48:48;3.67;;;1.33;;
18695;SDS011;22617;43.690;27.956;2022-09-09T06:53:52;8.80;;;1.77;;
18695;SDS011;22617;43.690;27.956;2022-09-09T06:58:59;4.72;;;1.30;;
18695;SDS011;22617;43.690;27.956;2022-09-09T07:04:08;6.25;;;1.60;;
18695;SDS011;22617;43.690;27.956;2022-09-09T07:09:15;2.33;;;1.40;;
18695;SDS011;22617;43.690;27.956;2022-09-09T07:14:22;2.65;;;1.20;;
18695;SDS011;22617;43.690;27.956;2022-09-09T07:19:34;5.05;;;1.48;;
18695;SDS011;22617;43.690;27.956;2022-09-09T07:24:40;4.22;;;1.20;;
18695;SDS011;22617;43.690;27.956;2022-09-09T07:29:43;2.58;;;1.25;;
18695;SDS011;22617;43.690;27.956;2022-09-09T07:34:50;2.25;;;1.30;;
18695;SDS011;22617;43.690;27.956;2022-09-09T07:39:55;3.28;;;1.00;;
18695;SDS011;22617;43.690;27.956;2022-09-09T07:44:58;5.20;;;1.35;;
18695;SDS011;22617;43.690;27.956;2022-09-09T07:50:05;3.05;;;1.30;;
18695;SDS011;22617;43.690;27.956;2022-09-09T07:55:10;11.32;;;1.42;;
18695;SDS011;22617;43.690;27.956;2022-09-09T08:00:14;3.60;;;1.23;;
18695;SDS011;22617;43.690;27.956;2022-09-09T08:05:25;4.75;;;1.10;;
18695;SDS011;22617;43.690;27.956;2022-09-09T08:10:29;2.58;;;1.00;;
18695;SDS011;22617;43.690;27.956;2022-09-09T08:15:34;1.88;;;1.17;;
18695;SDS011;22617;43.690;27.956;2022-09-09T08:20:40;1.10;;;0.85;;
18695;SDS011;22617;43.690;27.956;2022-09-09T08:25:44;3.28;;;1.10;;
18695;SDS011;22617;43.690;27.956;2022-09-09T08:30:48;1.83;;;1.10;;
18695;SDS011;22617;43.690;27.956;2022-09-09T08:35:57;14.00;;;1.52;;
18695;SDS011;22617;43.690;27.956;2022-09-09T08:41:04;1.20;;;1.00;;
18695;SDS011;22617;43.690;27.956;2022-09-09T08:46:20;2.88;;;1.13;;
18695;SDS011;22617;43.690;27.956;2022-09-09T08:51:37;2.42;;;1.20;;
18695;SDS011;22617;43.690;27.956;2022-09-09T08:56:41;3.95;;;1.20;;
18695;SDS011;22617;43.690;27.956;2022-09-09T09:07:24;1.38;;;1.00;;
18695;SDS011;22617;43.690;27.956;2022-09-09T09:12:38;3.45;;;1.05;;
18695;SDS011;22617;43.690;27.956;2022-09-09T09:17:48;4.53;;;1.15;;
18695;SDS011;22617;43.690;27.956;2022-09-09T09:22:55;4.28;;;1.30;;
18695;SDS011;22617;43.690;27.956;2022-09-09T09:28:10;3.72;;;1.05;;
18695;SDS011;22617;43.690;27.956;2022-09-09T09:33:23;2.67;;;1.10;;
18695;SDS011;22617;43.690;27.956;2022-09-09T09:38:33;1.52;;;1.10;;
18695;SDS011;22617;43.690;27.956;2022-09-09T09:44:00;3.63;;;1.23;;
18695;SDS011;22617;43.690;27.956;2022-09-09T09:49:08;3.10;;;1.10;;
18695;SDS011;22617;43.690;27.956;2022-09-09T09:54:21;3.03;;;1.00;;
18695;SDS011;22617;43.690;27.956;2022-09-09T09:59:34;2.80;;;1.25;;
18695;SDS011;22617;43.690;27.956;2022-09-09T10:05:03;4.97;;;1.20;;
18695;SDS011;22617;43.690;27.956;2022-09-09T10:10:20;5.07;;;1.00;;
18695;SDS011;22617;43.690;27.956;2022-09-09T10:15:36;3.30;;;0.90;;
18695;SDS011;22617;43.690;27.956;2022-09-09T10:20:51;2.92;;;0.93;;
18695;SDS011;22617;43.690;27.956;2022-09-09T10:26:10;6.03;;;1.30;;
18695;SDS011;22617;43.690;27.956;2022-09-09T10:31:24;2.72;;;1.30;;
18695;SDS011;22617;43.690;27.956;2022-09-09T10:36:32;3.85;;;1.00;;
18695;SDS011;22617;43.690;27.956;2022-09-09T10:41:42;2.78;;;1.00;;
18695;SDS011;22617;43.690;27.956;2022-09-09T10:46:57;5.00;;;1.00;;
18695;SDS011;22617;43.690;27.956;2022-09-09T10:52:14;2.22;;;1.10;;
18695;SDS011;22617;43.690;27.956;2022-09-09T10:57:29;2.42;;;1.00;;
18695;SDS011;22617;43.690;27.956;2022-09-09T11:02:38;5.18;;;1.20;;
18695;SDS011;22617;43.690;27.956;2022-09-09T11:07:44;1.65;;;1.00;;
18695;SDS011;22617;43.690;27.956;2022-09-09T11:12:56;7.78;;;1.20;;
18695;SDS011;22617;43.690;27.956;2022-09-09T11:18:05;1.92;;;1.10;;
18695;SDS011;22617;43.690;27.956;2022-09-09T11:23:16;3.03;;;0.88;;
18695;SDS011;22617;43.690;27.956;2022-09-09T11:28:28;4.15;;;1.10;;
18695;SDS011;22617;43.690;27.956;2022-09-09T11:39:23;3.17;;;1.08;;
18695;SDS011;22617;43.690;27.956;2022-09-09T11:44:50;2.13;;;0.90;;
18695;SDS011;22617;43.690;27.956;2022-09-09T11:49:55;2.03;;;1.13;;
18695;SDS011;22617;43.690;27.956;2022-09-09T11:55:10;2.05;;;1.10;;
18695;SDS011;22617;43.690;27.956;2022-09-09T12:00:32;1.38;;;1.00;;
18695;SDS011;22617;43.690;27.956;2022-09-09T12:05:39;3.22;;;0.90;;
18695;SDS011;22617;43.690;27.956;2022-09-09T12:10:53;3.22;;;1.15;;
18695;SDS011;22617;43.690;27.956;2022-09-09T12:16:00;2.47;;;0.90;;
18695;SDS011;22617;43.690;27.956;2022-09-09T12:21:07;7.75;;;1.25;;
18695;SDS011;22617;43.690;27.956;2022-09-09T12:26:25;2.33;;;1.00;;
18695;SDS011;22617;43.690;27.956;2022-09-09T12:31:39;3.17;;;1.10;;
18695;SDS011;22617;43.690;27.956;2022-09-09T12:36:48;2.30;;;0.90;;
18695;SDS011;22617;43.690;27.956;2022-09-09T12:41:58;10.05;;;1.17;;
18695;SDS011;22617;43.690;27.956;2022-09-09T12:47:03;1.05;;;0.90;;
18695;SDS011;22617;43.690;27.956;2022-09-09T12:52:07;9.25;;;1.90;;
18695;SDS011;22617;43.690;27.956;2022-09-09T12:57:17;7.75;;;1.17;;
18695;SDS011;22617;43.690;27.956;2022-09-09T13:02:23;2.97;;;1.20;;
18695;SDS011;22617;43.690;27.956;2022-09-09T13:07:29;4.18;;;1.15;;
18695;SDS011;22617;43.690;27.956;2022-09-09T13:12:33;2.97;;;1.30;;
18695;SDS011;22617;43.690;27.956;2022-09-09T13:17:39;1.85;;;1.20;;
18695;SDS011;22617;43.690;27.956;2022-09-09T13:22:42;2.65;;;1.10;;
18695;SDS011;22617;43.690;27.956;2022-09-09T13:27:51;2.25;;;1.15;;
18695;SDS011;22617;43.690;27.956;2022-09-09T13:33:05;2.35;;;1.40;;
18695;SDS011;22617;43.690;27.956;2022-09-09T13:38:24;2.22;;;1.10;;
18695;SDS011;22617;43.690;27.956;2022-09-09T13:43:28;2.65;;;1.00;;
18695;SDS011;22617;43.690;27.956;2022-09-09T13:48:36;4.60;;;1.23;;
18695;SDS011;22617;43.690;27.956;2022-09-09T13:53:39;1.65;;;1.00;;
18695;SDS011;22617;43.690;27.956;2022-09-09T13:58:43;7.05;;;1.20;;
18695;SDS011;22617;43.690;27.956;2022-09-09T14:03:48;2.95;;;1.00;;
18695;SDS011;22617;43.690;27.956;2022-09-09T14:08:52;3.58;;;1.00;;
18695;SDS011;22617;43.690;27.956;2022-09-09T14:13:56;3.92;;;1.25;;
18695;SDS011;22617;43.690;27.956;2022-09-09T14:19:01;3.00;;;1.00;;
18695;SDS011;22617;43.690;27.956;2022-09-09T14:24:05;2.67;;;1.50;;
18695;SDS011;22617;43.690;27.956;2022-09-09T14:29:08;4.35;;;1.20;;
18695;SDS011;22617;43.690;27.956;2022-09-09T14:34:13;3.38;;;1.42;;
18695;SDS011;22617;43.690;27.956;2022-09-09T14:39:17;4.10;;;1.60;;
18695;SDS011;22617;43.690;27.956;2022-09-09T14:44:20;2.55;;;1.80;;
18695;SDS011;22617;43.690;27.956;2022-09-09T14:49:25;5.10;;;2.78;;
18695;SDS011;22617;43.690;27.956;2022-09-09T14:54:29;5.63;;;1.90;;
18695;SDS011;22617;43.690;27.956;2022-09-09T14:59:32;3.47;;;1.98;;
18695;SDS011;22617;43.690;27.956;2022-09-09T15:04:38;2.92;;;2.10;;
18695;SDS011;22617;43.690;27.956;2022-09-09T15:09:41;4.80;;;2.35;;
18695;SDS011;22617;43.690;27.956;2022-09-09T15:14:45;2.58;;;2.22;;
18695;SDS011;22617;43.690;27.956;2022-09-09T15:19:51;7.05;;;2.72;;
18695;SDS011;22617;43.690;27.956;2022-09-09T15:24:55;3.85;;;2.60;;
18695;SDS011;22617;43.690;27.956;2022-09-09T15:29:58;4.55;;;2.80;;
18695;SDS011;22617;43.690;27.956;2022-09-09T15:35:05;6.30;;;2.47;;
18695;SDS011;22617;43.690;27.956;2022-09-09T15:40:09;3.72;;;2.17;;
18695;SDS011;22617;43.690;27.956;2022-09-09T15:45:13;2.47;;;2.22;;
18695;SDS011;22617;43.690;27.956;2022-09-09T15:50:18;5.32;;;2.60;;
18695;SDS011;22617;43.690;27.956;2022-09-09T15:55:22;5.15;;;2.38;;
18695;SDS011;22617;43.690;27.956;2022-09-09T16:00:27;5.03;;;2.42;;
18695;SDS011;22617;43.690;27.956;2022-09-09T16:05:32;6.00;;;2.67;;
18695;SDS011;22617;43.690;27.956;2022-09-09T16:10:36;4.72;;;3.03;;
18695;SDS011;22617;43.690;27.956;2022-09-09T16:15:39;5.20;;;2.80;;
18695;SDS011;22617;43.690;27.956;2022-09-09T16:20:44;4.53;;;2.78;;
18695;SDS011;22617;43.690;27.956;2022-09-09T16:25:56;4.90;;;2.58;;
18695;SDS011;22617;43.690;27.956;2022-09-09T16:31:06;4.90;;;2.63;;
18695;SDS011;22617;43.690;27.956;2022-09-09T16:36:13;4.90;;;3.03;;
18695;SDS011;22617;43.690;27.956;2022-09-09T16:41:18;7.13;;;3.13;;
18695;SDS011;22617;43.690;27.956;2022-09-09T16:46:22;4.63;;;3.33;;
18695;SDS011;22617;43.690;27.956;2022-09-09T16:51:29;4.70;;;3.35;;
18695;SDS011;22617;43.690;27.956;2022-09-09T16:56:34;4.45;;;3.10;;
18695;SDS011;22617;43.690;27.956;2022-09-09T17:01:40;7.97;;;3.83;;
18695;SDS011;22617;43.690;27.956;2022-09-09T17:06:46;7.18;;;3.45;;
18695;SDS011;22617;43.690;27.956;2022-09-09T17:11:52;6.28;;;3.40;;
18695;SDS011;22617;43.690;27.956;2022-09-09T17:16:57;3.97;;;3.50;;
18695;SDS011;22617;43.690;27.956;2022-09-09T17:22:21;5.85;;;3.92;;
18695;SDS011;22617;43.690;27.956;2022-09-09T17:27:28;4.70;;;4.03;;
18695;SDS011;22617;43.690;27.956;2022-09-09T17:32:33;5.45;;;3.42;;
18695;SDS011;22617;43.690;27.956;2022-09-09T17:37:38;5.65;;;3.72;;
18695;SDS011;22617;43.690;27.956;2022-09-09T17:42:42;5.60;;;3.72;;
18695;SDS011;22617;43.690;27.956;2022-09-09T17:47:45;6.32;;;3.47;;
18695;SDS011;22617;43.690;27.956;2022-09-09T17:52:51;4.38;;;3.72;;
18695;SDS011;22617;43.690;27.956;2022-09-09T17:57:54;5.55;;;3.78;;
18695;SDS011;22617;43.690;27.956;2022-09-09T18:02:58;6.00;;;4.00;;
18695;SDS011;22617;43.690;27.956;2022-09-09T18:08:03;8.05;;;3.90;;
18695;SDS011;22617;43.690;27.956;2022-09-09T18:13:07;6.70;;;4.00;;
18695;SDS011;22617;43.690;27.956;2022-09-09T18:18:10;5.15;;;3.97;;
18695;SDS011;22617;43.690;27.956;2022-09-09T18:23:16;7.47;;;4.22;;
18695;SDS011;22617;43.690;27.956;2022-09-09T18:28:19;12.10;;;4.97;;
18695;SDS011;22617;43.690;27.956;2022-09-09T18:33:34;7.43;;;4.40;;
18695;SDS011;22617;43.690;27.956;2022-09-09T18:38:39;6.50;;;4.30;;
18695;SDS011;22617;43.690;27.956;2022-09-09T18:43:43;8.52;;;4.03;;
18695;SDS011;22617;43.690;27.956;2022-09-09T18:48:47;7.00;;;4.25;;
18695;SDS011;22617;43.690;27.956;2022-09-09T18:53:54;7.35;;;3.95;;
18695;SDS011;22617;43.690;27.956;2022-09-09T18:59:00;5.00;;;3.88;;
18695;SDS011;22617;43.690;27.956;2022-09-09T19:04:05;4.90;;;3.67;;
18695;SDS011;22617;43.690;27.956;2022-09-09T19:09:11;6.57;;;4.15;;
18695;SDS011;22617;43.690;27.956;2022-09-09T19:14:16;6.40;;;3.92;;
18695;SDS011;22617;43.690;27.956;2022-09-09T19:19:20;9.90;;;4.05;;
18695;SDS011;22617;43.690;27.956;2022-09-09T19:24:27;7.45;;;3.90;;
18695;SDS011;22617;43.690;27.956;2022-09-09T19:29:32;5.43;;;3.80;;
18695;SDS011;22617;43.690;27.956;2022-09-09T19:34:37;4.65;;;3.90;;
18695;SDS011;22617;43.690;27.956;2022-09-09T19:39:42;11.82;;;4.90;;
18695;SDS011;22617;43.690;27.956;2022-09-09T19:44:46;7.97;;;3.58;;
18695;SDS011;22617;43.690;27.956;2022-09-09T19:49:50;6.30;;;3.13;;
18695;SDS011;22617;43.690;27.956;2022-09-09T19:54:55;6.80;;;3.05;;
18695;SDS011;22617;43.690;27.956;2022-09-09T19:59:59;5.97;;;3.08;;
18695;SDS011;22617;43.690;27.956;2022-09-09T20:05:12;5.90;;;3.20;;
18695;SDS011;22617;43.690;27.956;2022-09-09T20:10:17;8.77;;;3.35;;
18695;SDS011;22617;43.690;27.956;2022-09-09T20:15:21;7.88;;;3.33;;
18695;SDS011;22617;43.690;27.956;2022-09-09T20:20:24;4.10;;;3.10;;
18695;SDS011;22617;43.690;27.956;2022-09-09T20:25:30;4.28;;;3.38;;
18695;SDS011;22617;43.690;27.956;2022-09-09T20:30:37;8.02;;;3.10;;
18695;SDS011;22617;43.690;27.956;2022-09-09T20:35:41;4.60;;;3.22;;
18695;SDS011;22617;43.690;27.956;2022-09-09T20:40:46;6.00;;;2.70;;
18695;SDS011;22617;43.690;27.956;2022-09-09T20:45:49;10.70;;;3.05;;
18695;SDS011;22617;43.690;27.956;2022-09-09T20:50:54;4.90;;;2.70;;
18695;SDS011;22617;43.690;27.956;2022-09-09T20:56:00;5.43;;;2.80;;
18695;SDS011;22617;43.690;27.956;2022-09-09T21:01:05;4.90;;;2.88;;
18695;SDS011;22617;43.690;27.956;2022-09-09T21:06:09;4.32;;;2.60;;
18695;SDS011;22617;43.690;27.956;2022-09-09T21:11:15;6.22;;;2.50;;
18695;SDS011;22617;43.690;27.956;2022-09-09T21:16:19;8.48;;;2.70;;
18695;SDS011;22617;43.690;27.956;2022-09-09T21:21:23;8.85;;;2.78;;
18695;SDS011;22617;43.690;27.956;2022-09-09T21:26:28;5.35;;;3.13;;
18695;SDS011;22617;43.690;27.956;2022-09-09T21:31:31;6.70;;;2.53;;
18695;SDS011;22617;43.690;27.956;2022-09-09T21:36:35;4.30;;;2.40;;
18695;SDS011;22617;43.690;27.956;2022-09-09T21:41:40;8.05;;;2.65;;
18695;SDS011;22617;43.690;27.956;2022-09-09T21:46:44;8.57;;;2.92;;
18695;SDS011;22617;43.690;27.956;2022-09-09T21:51:47;4.88;;;2.40;;
18695;SDS011;22617;43.690;27.956;2022-09-09T21:56:53;4.57;;;2.42;;
18695;SDS011;22617;43.690;27.956;2022-09-09T22:01:56;4.95;;;2.58;;
18695;SDS011;22617;43.690;27.956;2022-09-09T22:07:00;4.85;;;2.40;;
18695;SDS011;22617;43.690;27.956;2022-09-09T22:12:05;5.35;;;2.33;;
18695;SDS011;22617;43.690;27.956;2022-09-09T22:17:09;5.90;;;2.38;;
18695;SDS011;22617;43.690;27.956;2022-09-09T22:22:12;6.57;;;2.40;;
18695;SDS011;22617;43.690;27.956;2022-09-09T22:27:17;8.52;;;2.55;;
18695;SDS011;22617;43.690;27.956;2022-09-09T22:32:21;5.05;;;2.50;;
18695;SDS011;22617;43.690;27.956;2022-09-09T22:37:24;6.97;;;2.35;;
18695;SDS011;22617;43.690;27.956;2022-09-09T22:42:29;7.07;;;2.50;;
18695;SDS011;22617;43.690;27.956;2022-09-09T22:47:32;5.70;;;2.88;;
18695;SDS011;22617;43.690;27.956;2022-09-09T22:52:36;7.18;;;2.70;;
18695;SDS011;22617;43.690;27.956;2022-09-09T22:57:41;6.15;;;2.33;;
18695;SDS011;22617;43.690;27.956;2022-09-09T23:02:45;4.70;;;2.20;;
18695;SDS011;22617;43.690;27.956;2022-09-09T23:07:49;7.35;;;2.55;;
18695;SDS011;22617;43.690;27.956;2022-09-09T23:12:55;5.07;;;2.17;;
18695;SDS011;22617;43.690;27.956;2022-09-09T23:17:59;6.80;;;2.40;;
18695;SDS011;22617;43.690;27.956;2022-09-09T23:23:02;6.15;;;2.50;;
18695;SDS011;22617;43.690;27.956;2022-09-09T23:28:07;10.98;;;2.63;;
18695;SDS011;22617;43.690;27.956;2022-09-09T23:33:11;4.95;;;2.50;;
18695;SDS011;22617;43.690;27.956;2022-09-09T23:38:14;4.93;;;2.67;;
18695;SDS011;22617;43.690;27.956;2022-09-09T23:43:19;5.78;;;2.50;;
18695;SDS011;22617;43.690;27.956;2022-09-09T23:48:25;5.22;;;2.60;;
18695;SDS011;22617;43.690;27.956;2022-09-09T23:53:28;8.70;;;2.90;;
18695;SDS011;22617;43.690;27.956;2022-09-09T23:58:34;6.40;;;2.70;;
